createdAt,value
2023-03-14T00:00:40.939Z,99.33
2023-03-14T00:03:07.406Z,99.37
2023-03-14T00:05:35.249Z,99.81
2023-03-14T00:08:01.734Z,100.00
2023-03-14T00:10:28.126Z,100.00
2023-03-14T00:12:54.583Z,99.68
2023-03-14T00:15:21.041Z,99.51
2023-03-14T00:17:47.441Z,99.22
2023-03-14T00:20:13.884Z,99.18
2023-03-14T00:22:41.571Z,99.11
2023-03-14T00:25:09.787Z,99.21
2023-03-14T00:27:36.288Z,98.40
2023-03-14T00:30:05.614Z,97.87
2023-03-14T00:32:32.078Z,97.54
2023-03-14T00:34:58.570Z,97.57
2023-03-14T00:37:27.666Z,97.72
2023-03-14T00:39:54.098Z,96.99
2023-03-14T00:42:20.515Z,96.43
2023-03-14T00:44:46.934Z,96.62
2023-03-14T00:47:13.455Z,95.68
2023-03-14T00:49:39.859Z,95.31
2023-03-14T00:52:06.257Z,94.64
2023-03-14T00:54:32.887Z,93.04
2023-03-14T00:56:59.576Z,91.81
2023-03-14T00:59:25.943Z,92.30
2023-03-14T01:01:52.433Z,91.22
2023-03-14T01:04:19.315Z,90.98
2023-03-14T01:06:45.765Z,91.51
2023-03-14T01:09:12.286Z,91.05
2023-03-14T01:11:38.739Z,91.26
2023-03-14T01:14:05.689Z,90.63
2023-03-14T01:16:34.516Z,90.79
2023-03-14T01:19:02.299Z,91.34
2023-03-14T01:21:31.815Z,91.19
2023-03-14T01:24:00.180Z,91.49
2023-03-14T01:26:28.204Z,91.14
2023-03-14T01:28:56.008Z,91.66
2023-03-14T01:31:24.311Z,91.85
2023-03-14T01:33:51.154Z,91.17
2023-03-14T01:36:17.754Z,91.89
2023-03-14T01:38:45.009Z,91.23
2023-03-14T01:41:21.205Z,91.72
2023-03-14T01:43:49.000Z,91.87
2023-03-14T01:46:30.164Z,92.47
2023-03-14T01:49:03.042Z,92.40
2023-03-14T01:51:39.527Z,93.17
2023-03-14T01:54:15.728Z,93.49
2023-03-14T01:56:47.214Z,92.76
2023-03-14T01:59:14.060Z,93.20
2023-03-14T02:01:43.996Z,93.27
2023-03-14T02:04:11.156Z,93.70
2023-03-14T02:06:52.629Z,93.44
2023-03-14T02:09:22.344Z,93.72
2023-03-14T02:11:50.243Z,93.59
2023-03-14T02:14:48.644Z,93.52
2023-03-14T02:17:36.525Z,94.00
2023-03-14T02:20:22.667Z,94.16
2023-03-14T02:22:54.975Z,94.19
2023-03-14T02:25:36.740Z,94.08
2023-03-14T02:28:03.553Z,94.26
2023-03-14T02:30:31.922Z,94.31
2023-03-14T02:33:16.799Z,93.86
2023-03-14T02:35:54.588Z,93.88
2023-03-14T02:38:38.787Z,93.91
2023-03-14T02:41:06.465Z,94.32
2023-03-14T02:43:38.231Z,93.86
2023-03-14T02:46:13.022Z,94.28
2023-03-14T02:48:49.400Z,93.88
2023-03-14T02:51:17.562Z,93.42
2023-03-14T02:53:47.136Z,93.85
2023-03-14T02:56:15.136Z,93.75
2023-03-14T02:58:41.608Z,93.48
2023-03-14T03:01:19.781Z,93.29
2023-03-14T03:03:46.545Z,93.71
2023-03-14T03:06:13.032Z,93.69
2023-03-14T03:08:39.536Z,93.23
2023-03-14T03:11:06.550Z,93.60
2023-03-14T03:13:34.659Z,93.77
2023-03-14T03:16:03.667Z,93.92
2023-03-14T03:18:30.124Z,93.59
2023-03-14T03:21:00.163Z,93.96
2023-03-14T03:23:26.658Z,94.11
2023-03-14T03:25:53.228Z,93.77
2023-03-14T03:28:21.055Z,93.78
2023-03-14T03:30:47.976Z,93.68
2023-03-14T03:33:14.973Z,93.66
2023-03-14T03:35:50.622Z,94.14
2023-03-14T03:38:23.234Z,93.42
2023-03-14T03:40:53.212Z,94.34
2023-03-14T03:43:20.365Z,93.81
2023-03-14T03:45:49.092Z,93.62
2023-03-14T03:48:15.715Z,93.56
2023-03-14T03:50:48.529Z,94.06
2023-03-14T03:53:32.385Z,93.66
2023-03-14T03:56:00.590Z,94.11
2023-03-14T03:58:27.227Z,93.64
2023-03-14T04:00:53.652Z,94.06
2023-03-14T04:03:20.110Z,94.01
2023-03-14T04:05:46.836Z,93.55
2023-03-14T04:08:13.811Z,93.81
2023-03-14T04:10:40.304Z,93.55
2023-03-14T04:13:10.085Z,93.51
2023-03-14T04:15:38.723Z,93.19
2023-03-14T04:18:12.243Z,93.76
2023-03-14T04:20:38.648Z,93.66
2023-03-14T04:23:05.416Z,93.85
2023-03-14T04:25:31.919Z,93.98
2023-03-14T04:28:00.833Z,93.91
2023-03-14T04:30:29.777Z,94.12
2023-03-14T04:32:59.361Z,93.84
2023-03-14T04:35:27.880Z,94.68
2023-03-14T04:37:58.745Z,94.13
2023-03-14T04:40:25.730Z,94.14
2023-03-14T04:42:55.756Z,94.28
2023-03-14T04:45:22.886Z,94.50
2023-03-14T04:47:49.589Z,94.60
2023-03-14T04:50:18.992Z,94.27
2023-03-14T04:52:46.405Z,94.16
2023-03-14T04:55:13.038Z,94.83
2023-03-14T04:57:39.641Z,94.36
2023-03-14T05:00:11.064Z,95.20
2023-03-14T05:02:52.481Z,94.39
2023-03-14T05:05:26.797Z,95.14
2023-03-14T05:08:28.746Z,95.10
2023-03-14T05:11:12.699Z,94.58
2023-03-14T05:13:53.335Z,94.98
2023-03-14T05:16:44.996Z,94.64
2023-03-14T05:19:31.121Z,94.87
2023-03-14T05:22:17.908Z,94.85
2023-03-14T05:25:13.376Z,94.82
2023-03-14T05:28:02.792Z,94.38
2023-03-14T05:30:39.024Z,94.21
2023-03-14T05:33:24.280Z,94.39
2023-03-14T05:36:12.316Z,93.65
2023-03-14T05:38:54.045Z,94.21
2023-03-14T05:41:31.133Z,93.60
2023-03-14T05:44:23.702Z,93.88
2023-03-14T05:47:14.501Z,93.09
2023-03-14T05:50:01.394Z,93.48
2023-03-14T05:52:36.029Z,92.64
2023-03-14T05:55:19.421Z,93.02
2023-03-14T05:57:58.971Z,92.94
2023-03-14T06:00:44.020Z,92.43
2023-03-14T06:03:34.176Z,92.79
2023-03-14T06:06:00.874Z,92.14
2023-03-14T06:08:27.792Z,92.67
2023-03-14T06:10:54.692Z,92.65
2023-03-14T06:13:28.802Z,91.15
2023-03-14T06:15:55.291Z,91.80
2023-03-14T06:18:21.729Z,91.15
2023-03-14T06:20:48.863Z,91.26
2023-03-14T06:23:23.732Z,91.33
2023-03-14T06:25:50.458Z,91.40
2023-03-14T06:28:17.696Z,91.57
2023-03-14T06:30:44.362Z,91.08
2023-03-14T06:33:12.696Z,91.01
2023-03-14T06:35:41.346Z,90.76
2023-03-14T06:38:07.891Z,91.52
2023-03-14T06:40:34.462Z,91.46
2023-03-14T06:43:06.960Z,90.80
2023-03-14T06:45:39.069Z,91.04
2023-03-14T06:48:06.425Z,90.81
2023-03-14T06:50:40.180Z,91.11
2023-03-14T06:53:06.675Z,91.21
2023-03-14T06:55:35.425Z,90.46
2023-03-14T06:58:01.915Z,90.47
2023-03-14T07:00:29.219Z,90.15
2023-03-14T07:02:57.379Z,90.33
2023-03-14T07:05:37.700Z,90.59
2023-03-14T07:08:04.124Z,90.50
2023-03-14T07:10:30.601Z,90.20
2023-03-14T07:12:57.084Z,90.13
2023-03-14T07:15:26.657Z,90.13
2023-03-14T07:17:57.625Z,89.77
2023-03-14T07:20:25.036Z,89.94
2023-03-14T07:22:52.184Z,89.21
2023-03-14T07:25:26.219Z,89.31
2023-03-14T07:27:53.959Z,88.92
2023-03-14T07:30:20.502Z,89.82
2023-03-14T07:32:47.339Z,89.18
2023-03-14T07:35:14.619Z,89.23
2023-03-14T07:37:41.993Z,88.98
2023-03-14T07:40:11.453Z,88.03
2023-03-14T07:42:37.910Z,87.72
2023-03-14T07:45:30.164Z,87.93
2023-03-14T07:47:59.503Z,87.95
2023-03-14T07:50:26.931Z,87.96
2023-03-14T07:52:53.640Z,87.52
2023-03-14T07:55:20.148Z,87.43
2023-03-14T07:57:46.704Z,87.13
2023-03-14T08:00:16.082Z,86.77
2023-03-14T08:02:43.127Z,86.29
2023-03-14T08:05:10.313Z,85.09
2023-03-14T08:07:36.806Z,85.53
2023-03-14T08:10:03.729Z,85.55
2023-03-14T08:12:30.104Z,85.10
2023-03-14T08:14:56.550Z,84.91
2023-03-14T08:17:22.933Z,84.41
2023-03-14T08:19:49.359Z,84.06
2023-03-14T08:22:17.752Z,83.84
2023-03-14T08:24:45.772Z,83.42
2023-03-14T08:27:12.250Z,82.99
2023-03-14T08:29:38.716Z,81.82
2023-03-14T08:32:05.524Z,81.51
2023-03-14T08:34:34.327Z,80.63
2023-03-14T08:37:00.871Z,80.36
2023-03-14T08:39:27.385Z,79.51
2023-03-14T08:41:53.811Z,79.16
2023-03-14T08:44:20.997Z,79.00
2023-03-14T08:46:47.635Z,78.17
2023-03-14T08:49:15.767Z,77.23
2023-03-14T08:51:42.295Z,76.97
2023-03-14T08:54:11.790Z,76.38
2023-03-14T08:56:41.345Z,75.85
2023-03-14T08:59:09.062Z,75.61
2023-03-14T09:01:35.589Z,75.61
2023-03-14T09:04:02.073Z,74.17
2023-03-14T09:06:28.585Z,71.78
2023-03-14T09:08:55.044Z,72.06
2023-03-14T09:11:21.526Z,71.46
2023-03-14T09:13:48.029Z,71.13
2023-03-14T09:16:14.521Z,70.05
2023-03-14T09:18:40.962Z,69.68
2023-03-14T09:21:07.813Z,69.92
2023-03-14T09:23:34.288Z,67.82
2023-03-14T09:26:01.716Z,66.98
2023-03-14T09:28:28.631Z,68.18
2023-03-14T09:30:55.500Z,68.73
2023-03-14T09:33:22.261Z,69.15
2023-03-14T09:35:48.768Z,68.80
2023-03-14T09:38:15.219Z,68.56
2023-03-14T09:40:41.815Z,69.12
2023-03-14T09:43:15.115Z,68.80
2023-03-14T09:45:43.766Z,69.59
2023-03-14T09:48:17.815Z,68.38
2023-03-14T09:50:50.370Z,68.79
2023-03-14T09:53:19.745Z,68.75
2023-03-14T09:55:49.353Z,68.96
2023-03-14T09:58:25.733Z,69.21
2023-03-14T10:00:56.212Z,68.85
2023-03-14T10:03:32.140Z,69.77
2023-03-14T10:05:59.052Z,69.99
2023-03-14T10:08:25.985Z,70.60
2023-03-14T10:10:54.508Z,71.01
2023-03-14T10:13:28.963Z,70.46
2023-03-14T10:16:07.265Z,70.88
2023-03-14T10:18:37.028Z,69.95
2023-03-14T10:21:30.859Z,69.87
2023-03-14T10:24:27.132Z,70.06
2023-03-14T10:27:04.718Z,69.41
2023-03-14T10:29:33.589Z,68.44
2023-03-14T10:32:04.609Z,65.86
2023-03-14T10:34:33.583Z,66.28
2023-03-14T10:37:08.087Z,66.66
2023-03-14T10:39:34.564Z,64.10
2023-03-14T10:42:20.085Z,62.61
2023-03-14T10:44:51.819Z,60.81
2023-03-14T10:47:24.260Z,59.98
2023-03-14T10:49:51.424Z,61.68
2023-03-14T10:52:31.217Z,61.69
2023-03-14T10:55:12.728Z,63.34
2023-03-14T10:57:40.617Z,64.40
2023-03-14T11:00:12.563Z,63.21
2023-03-14T11:02:50.785Z,63.31
2023-03-14T11:05:32.616Z,61.62
2023-03-14T11:08:08.855Z,62.56
2023-03-14T11:10:38.649Z,62.32
2023-03-14T11:13:20.445Z,63.00
2023-03-14T11:15:57.825Z,63.07
2023-03-14T11:18:49.312Z,61.71
2023-03-14T11:21:25.757Z,61.89
2023-03-14T11:24:17.064Z,62.07
2023-03-14T11:26:47.366Z,62.09
2023-03-14T11:29:26.296Z,61.55
2023-03-14T11:31:58.459Z,62.89
2023-03-14T11:34:44.584Z,64.25
2023-03-14T11:37:27.167Z,64.28
2023-03-14T11:40:02.446Z,64.13
2023-03-14T11:42:30.433Z,65.34
2023-03-14T11:45:00.536Z,65.73
2023-03-14T11:47:34.178Z,64.62
2023-03-14T11:50:13.857Z,65.66
2023-03-14T11:52:55.142Z,65.55
2023-03-14T11:55:28.847Z,66.33
2023-03-14T11:58:02.228Z,67.60
2023-03-14T12:00:30.781Z,68.75
2023-03-14T12:03:25.011Z,70.38
2023-03-14T12:05:54.467Z,72.77
2023-03-14T12:08:33.891Z,74.14
2023-03-14T12:11:12.502Z,75.94
2023-03-14T12:13:41.025Z,75.97
2023-03-14T12:16:20.815Z,77.48
2023-03-14T12:18:47.365Z,78.19
2023-03-14T12:21:14.314Z,79.07
2023-03-14T12:23:50.769Z,79.61
2023-03-14T12:27:06.615Z,81.06
2023-03-14T12:29:33.163Z,81.54
2023-03-14T12:32:02.276Z,82.28
2023-03-14T12:34:31.807Z,83.27
2023-03-14T12:37:18.654Z,83.63
2023-03-14T12:40:12.061Z,84.39
2023-03-14T12:42:45.740Z,84.69
2023-03-14T12:45:26.267Z,85.51
2023-03-14T12:48:04.261Z,86.17
2023-03-14T12:50:46.519Z,86.88
2023-03-14T12:53:39.811Z,87.22
2023-03-14T12:56:24.069Z,87.63
2023-03-14T12:59:27.490Z,87.11
2023-03-14T13:02:28.608Z,86.95
2023-03-14T13:05:13.301Z,86.54
2023-03-14T13:07:48.793Z,88.13
2023-03-14T13:10:28.835Z,87.38
2023-03-14T13:13:04.401Z,88.03
2023-03-14T13:15:36.284Z,88.03
2023-03-14T13:18:16.488Z,88.04
2023-03-14T13:20:49.539Z,89.44
2023-03-14T13:23:29.279Z,89.09
2023-03-14T13:25:57.008Z,87.81
2023-03-14T13:28:23.973Z,87.51
2023-03-14T13:30:55.611Z,87.53
2023-03-14T13:33:23.730Z,86.62
2023-03-14T13:35:56.385Z,87.12
2023-03-14T13:38:28.363Z,88.19
2023-03-14T13:41:00.552Z,88.01
2023-03-14T13:43:34.089Z,87.85
2023-03-14T13:46:23.699Z,86.90
2023-03-14T13:48:55.424Z,84.10
2023-03-14T13:51:23.603Z,83.20
2023-03-14T13:53:52.732Z,76.00
2023-03-14T13:56:24.491Z,69.29
2023-03-14T13:58:51.110Z,66.35
2023-03-14T14:01:43.989Z,66.93
2023-03-14T14:04:16.784Z,66.33
2023-03-14T14:06:50.641Z,64.83
2023-03-14T14:09:25.611Z,63.89
2023-03-14T14:12:14.345Z,64.39
2023-03-14T14:14:55.842Z,65.09
2023-03-14T14:17:32.140Z,64.14
2023-03-14T14:20:01.092Z,63.38
2023-03-14T14:22:28.378Z,63.15
2023-03-14T14:24:55.276Z,61.45
2023-03-14T14:27:32.425Z,61.08
2023-03-14T14:30:06.100Z,61.01
2023-03-14T14:32:38.668Z,61.02
2023-03-14T14:35:06.340Z,61.34
2023-03-14T14:37:35.569Z,60.26
2023-03-14T14:40:19.543Z,60.25
2023-03-14T14:42:46.624Z,60.15
2023-03-14T14:45:24.835Z,59.44
2023-03-14T14:47:52.819Z,59.86
2023-03-14T14:50:30.116Z,59.78
2023-03-14T14:53:02.126Z,59.00
2023-03-14T14:55:40.081Z,59.22
2023-03-14T14:58:39.153Z,59.55
2023-03-14T15:01:12.653Z,57.02
2023-03-14T15:03:39.155Z,55.82
2023-03-14T15:06:05.803Z,55.57
2023-03-14T15:08:32.262Z,56.07
2023-03-14T15:10:59.170Z,55.98
2023-03-14T15:13:25.792Z,55.52
2023-03-14T15:15:57.007Z,53.66
2023-03-14T15:18:25.877Z,54.07
2023-03-14T15:20:52.848Z,52.77
2023-03-14T15:23:20.969Z,50.95
2023-03-14T15:25:55.553Z,50.75
2023-03-14T15:28:28.145Z,50.37
2023-03-14T15:30:56.989Z,49.92
2023-03-14T15:33:25.010Z,50.06
2023-03-14T15:35:51.793Z,50.14
2023-03-14T15:38:23.731Z,50.68
2023-03-14T15:40:51.530Z,51.49
2023-03-14T15:43:19.133Z,51.78
2023-03-14T15:45:45.857Z,51.61
2023-03-14T15:48:20.290Z,52.43
2023-03-14T15:50:46.811Z,51.23
2023-03-14T15:53:13.545Z,52.16
2023-03-14T15:55:40.109Z,51.46
2023-03-14T15:58:06.784Z,51.42
2023-03-14T16:00:33.308Z,50.68
2023-03-14T16:02:59.725Z,47.07
2023-03-14T16:05:26.218Z,46.01
2023-03-14T16:07:52.602Z,46.14
2023-03-14T16:10:19.145Z,47.70
2023-03-14T16:12:45.702Z,48.56
2023-03-14T16:15:12.101Z,47.41
2023-03-14T16:17:40.930Z,47.96
2023-03-14T16:20:08.496Z,45.71
2023-03-14T16:22:36.612Z,42.40
2023-03-14T16:25:05.697Z,42.51
2023-03-14T16:27:32.885Z,45.04
2023-03-14T16:30:00.477Z,46.41
2023-03-14T16:32:27.121Z,47.37
2023-03-14T16:34:54.141Z,48.74
2023-03-14T16:37:21.682Z,48.89
2023-03-14T16:40:11.021Z,49.42
2023-03-14T16:42:46.788Z,49.50
2023-03-14T16:45:17.103Z,47.16
2023-03-14T16:47:43.515Z,43.84
2023-03-14T16:50:10.244Z,41.35
2023-03-14T16:52:36.857Z,41.23
2023-03-14T16:55:04.607Z,44.70
2023-03-14T16:57:31.048Z,46.88
2023-03-14T16:59:57.530Z,49.20
2023-03-14T17:02:23.999Z,50.74
2023-03-14T17:04:50.589Z,52.15
2023-03-14T17:07:16.993Z,52.46
2023-03-14T17:09:43.413Z,53.58
2023-03-14T17:12:10.062Z,53.87
2023-03-14T17:14:36.453Z,54.96
2023-03-14T17:17:02.952Z,56.21
2023-03-14T17:19:29.441Z,56.25
2023-03-14T17:22:09.299Z,56.54
2023-03-14T17:24:42.324Z,57.64
2023-03-14T17:27:08.809Z,57.00
2023-03-14T17:29:35.352Z,57.27
2023-03-14T17:32:01.826Z,58.08
2023-03-14T17:34:28.223Z,57.47
2023-03-14T17:36:54.622Z,57.95
2023-03-14T17:39:21.076Z,58.29
2023-03-14T17:41:47.777Z,57.83
2023-03-14T17:44:14.172Z,58.18
2023-03-14T17:46:40.652Z,57.94
2023-03-14T17:49:07.162Z,59.05
2023-03-14T17:51:33.547Z,59.13
2023-03-14T17:54:00.037Z,59.58
2023-03-14T17:56:26.408Z,59.14
2023-03-14T17:58:54.116Z,60.60
2023-03-14T18:01:21.207Z,60.11
2023-03-14T18:03:48.045Z,60.18
2023-03-14T18:06:17.040Z,60.70
2023-03-14T18:08:43.983Z,61.35
2023-03-14T18:11:11.525Z,61.21
2023-03-14T18:13:38.565Z,61.74
2023-03-14T18:16:07.232Z,61.47
2023-03-14T18:18:33.923Z,61.90
2023-03-14T18:21:00.407Z,61.74
2023-03-14T18:23:26.787Z,62.42
2023-03-14T18:25:53.255Z,62.38
2023-03-14T18:28:21.111Z,62.86
2023-03-14T18:30:52.190Z,65.01
2023-03-14T18:33:20.673Z,67.48
2023-03-14T18:35:47.200Z,70.45
2023-03-14T18:38:13.791Z,70.80
2023-03-14T18:40:40.387Z,72.76
2023-03-14T18:43:06.820Z,73.22
2023-03-14T18:45:34.382Z,73.66
2023-03-14T18:48:00.817Z,73.91
2023-03-14T18:50:28.121Z,73.77
2023-03-14T18:52:54.657Z,74.25
2023-03-14T18:55:21.142Z,74.21
2023-03-14T18:57:47.554Z,75.01
2023-03-14T19:00:15.475Z,74.18
2023-03-14T19:02:41.993Z,74.16
2023-03-14T19:05:09.309Z,74.19
2023-03-14T19:07:35.780Z,74.33
2023-03-14T19:10:02.300Z,74.32
2023-03-14T19:12:29.605Z,75.30
2023-03-14T19:14:56.072Z,75.21
2023-03-14T19:17:22.863Z,75.66
2023-03-14T19:19:51.796Z,75.63
2023-03-14T19:22:18.198Z,76.45
2023-03-14T19:24:44.608Z,75.89
2023-03-14T19:27:11.172Z,77.15
2023-03-14T19:29:42.102Z,76.28
2023-03-14T19:32:12.564Z,77.74
2023-03-14T19:34:39.033Z,78.39
2023-03-14T19:37:05.499Z,79.27
2023-03-14T19:39:32.001Z,79.88
2023-03-14T19:41:59.425Z,80.16
2023-03-14T19:44:26.354Z,80.32
2023-03-14T19:46:53.331Z,80.68
2023-03-14T19:49:19.961Z,80.78
2023-03-14T19:51:46.383Z,81.23
2023-03-14T19:54:12.826Z,81.52
2023-03-14T19:56:40.213Z,81.42
2023-03-14T19:59:07.358Z,81.12
2023-03-14T20:01:35.133Z,81.54
2023-03-14T20:04:04.768Z,81.32
2023-03-14T20:06:31.398Z,81.54
2023-03-14T20:08:58.908Z,81.51
2023-03-14T20:11:25.626Z,81.24
2023-03-14T20:13:52.117Z,81.05
2023-03-14T20:16:18.674Z,81.05
2023-03-14T20:18:45.141Z,80.99
2023-03-14T20:21:15.494Z,80.91
2023-03-14T20:23:44.024Z,80.50
2023-03-14T20:26:10.919Z,80.29
2023-03-14T20:28:37.389Z,79.79
2023-03-14T20:31:06.446Z,79.40
2023-03-14T20:33:34.449Z,79.69
2023-03-14T20:36:00.961Z,79.79
2023-03-14T20:38:28.576Z,79.06
2023-03-14T20:40:59.551Z,78.83
2023-03-14T20:43:27.258Z,79.07
2023-03-14T20:45:55.413Z,78.58
2023-03-14T20:48:22.874Z,78.09
2023-03-14T20:50:49.373Z,78.77
2023-03-14T20:53:16.855Z,78.02
2023-03-14T20:55:43.336Z,78.05
2023-03-14T20:58:12.983Z,77.57
2023-03-14T21:00:40.420Z,78.05
2023-03-14T21:03:07.432Z,78.04
2023-03-14T21:05:34.730Z,78.14
2023-03-14T21:08:01.293Z,76.97
2023-03-14T21:10:28.107Z,76.95
2023-03-14T21:12:54.520Z,76.45
2023-03-14T21:15:21.939Z,76.88
2023-03-14T21:17:48.448Z,76.58
2023-03-14T21:20:16.632Z,77.32
2023-03-14T21:22:43.060Z,76.97
2023-03-14T21:25:09.656Z,77.29
2023-03-14T21:27:40.074Z,76.99
2023-03-14T21:30:07.930Z,77.20
2023-03-14T21:32:34.475Z,77.16
2023-03-14T21:35:00.985Z,77.40
2023-03-14T21:37:27.916Z,76.96
2023-03-14T21:39:54.987Z,77.03
2023-03-14T21:42:24.517Z,77.03
2023-03-14T21:44:52.158Z,76.96
2023-03-14T21:47:19.670Z,78.22
2023-03-14T21:49:47.097Z,78.15
2023-03-14T21:52:14.439Z,78.35
2023-03-14T21:54:43.232Z,79.00
2023-03-14T21:57:10.536Z,79.13
2023-03-14T21:59:38.070Z,79.99
2023-03-14T22:02:07.540Z,79.27
2023-03-14T22:04:36.911Z,80.26
2023-03-14T22:07:05.485Z,79.98
2023-03-14T22:09:32.581Z,80.22
2023-03-14T22:11:59.128Z,80.37
2023-03-14T22:14:25.765Z,81.09
2023-03-14T22:16:52.505Z,80.96
2023-03-14T22:19:19.475Z,81.15
2023-03-14T22:21:45.977Z,81.21
2023-03-14T22:24:12.495Z,81.68
2023-03-14T22:26:38.883Z,82.59
2023-03-14T22:29:05.558Z,82.98
2023-03-14T22:31:32.216Z,83.80
2023-03-14T22:33:58.680Z,84.39
2023-03-14T22:36:25.163Z,84.25
2023-03-14T22:38:51.557Z,85.29
2023-03-14T22:41:17.974Z,86.04
2023-03-14T22:43:44.441Z,86.54
2023-03-14T22:46:10.935Z,86.93
2023-03-14T22:48:37.393Z,87.36
2023-03-14T22:51:11.143Z,88.08
2023-03-14T22:53:39.090Z,88.14
2023-03-14T22:56:09.133Z,88.12
2023-03-14T22:58:36.091Z,88.72
2023-03-14T23:01:03.044Z,88.79
2023-03-14T23:03:29.851Z,89.21
2023-03-14T23:05:56.499Z,89.22
2023-03-14T23:08:23.199Z,89.51
2023-03-14T23:10:49.636Z,89.73
2023-03-14T23:13:16.035Z,89.68
2023-03-14T23:15:43.469Z,89.77
2023-03-14T23:18:11.930Z,89.96
2023-03-14T23:20:38.387Z,90.03
2023-03-14T23:23:08.358Z,90.24
2023-03-14T23:25:41.577Z,90.64
2023-03-14T23:28:18.965Z,90.46
2023-03-14T23:30:45.463Z,90.03
2023-03-14T23:33:11.968Z,90.52
2023-03-14T23:35:38.389Z,90.46
2023-03-14T23:38:04.861Z,90.42
2023-03-14T23:40:31.325Z,90.49
2023-03-14T23:42:57.722Z,90.02
2023-03-14T23:45:24.238Z,90.14
2023-03-14T23:47:50.680Z,90.25
2023-03-14T23:50:17.174Z,90.30
2023-03-14T23:52:43.645Z,89.62
2023-03-14T23:55:10.502Z,90.23
2023-03-14T23:57:36.990Z,89.68
